Time;durP1;ratioP1;P1;durP2;ratioP2;P2;SDS_P1;SDS_P2;PMS_P1;PMS_P2;Temp;Humidity;BMP_temperature;BMP_pressure;BME280_temperature;BME280_humidity;BME280_pressure;Samples;Min_cycle;Max_cycle;Signal;HPM_P1;HPM_P2
2021/01/02 00:00:59;;;;;;;15.43;6.82;;;4.70;99.90;;;;;;5052368;28;20079;-67
2021/01/02 00:03:48;;;;;;;16.58;7.70;;;4.70;99.90;;;;;;5048652;28;20053;-66
2021/01/02 00:06:15;;;;;;;;;;;4.70;99.90;;;;;;5052244;28;20060;-67
2021/01/02 00:08:49;;;;;;;15.55;6.55;;;4.70;99.90;;;;;;5049436;28;19921;-67
2021/01/02 00:11:50;;;;;;;14.20;6.22;;;4.70;99.90;;;;;;5052349;28;20052;-67
2021/01/02 00:14:24;;;;;;;15.43;7.00;;;4.70;99.90;;;;;;5046999;28;20049;-67
2021/01/02 00:17:23;;;;;;;15.05;6.93;;;4.70;99.90;;;;;;5051864;28;20049;-67
2021/01/02 00:20:04;;;;;;;;;;;4.70;99.90;;;;;;5046335;28;20053;-66
2021/01/02 00:22:58;;;;;;;15.65;6.50;;;4.70;99.90;;;;;;5051386;28;19924;-66
2021/01/02 00:25:30;;;;;;;16.08;6.85;;;4.60;99.90;;;;;;5045537;28;20453;-66
2021/01/02 00:28:08;;;;;;;18.23;8.07;;;4.60;99.90;;;;;;5049137;28;20518;-67
2021/01/02 00:30:57;;;;;;;11.98;5.20;;;4.60;99.90;;;;;;5047346;28;20395;-67
2021/01/02 00:33:56;;;;;;;15.85;7.97;;;4.60;99.90;;;;;;5047838;28;20048;-67
2021/01/02 00:36:33;;;;;;;14.15;7.88;;;4.60;99.90;;;;;;5051157;28;20043;-67
2021/01/02 00:38:59;;;;;;;15.75;7.05;;;4.60;99.90;;;;;;5048731;28;20072;-67
2021/01/02 00:41:27;;;;;;;16.00;7.45;;;4.60;99.90;;;;;;5051114;28;20113;-67
2021/01/02 00:43:54;;;;;;;15.07;7.55;;;4.60;99.90;;;;;;5049864;28;20084;-67
2021/01/02 00:46:20;;;;;;;13.48;7.57;;;4.60;99.90;;;;;;5051662;28;20128;-67
2021/01/02 00:48:47;;;;;;;16.92;7.53;;;4.60;99.90;;;;;;5048863;28;20063;-67
2021/01/02 00:51:16;;;;;;;18.95;8.57;;;4.60;99.90;;;;;;5051473;28;20060;-67
2021/01/02 00:53:54;;;;;;;18.40;7.95;;;4.60;99.90;;;;;;5045841;28;20037;-67
2021/01/02 00:56:47;;;;;;;14.00;7.43;;;4.60;99.90;;;;;;5051165;28;20514;-67
2021/01/02 00:59:46;;;;;;;16.13;7.63;;;4.60;99.90;;;;;;5039052;28;20556;-67
2021/01/02 01:02:36;;;;;;;14.95;7.43;;;4.60;99.90;;;;;;5051486;28;20128;-67
2021/01/02 01:05:07;;;;;;;17.70;7.53;;;4.60;99.90;;;;;;5045339;28;20092;-67
2021/01/02 01:07:36;;;;;;;17.08;7.60;;;4.60;99.90;;;;;;5045132;28;20044;-67
2021/01/02 01:10:09;;;;;;;16.00;8.25;;;4.60;99.90;;;;;;5048676;28;20127;-67
2021/01/02 01:12:43;;;;;;;18.35;7.72;;;4.60;99.90;;;;;;5050537;28;20091;-67
2021/01/02 01:15:11;;;;;;;17.40;8.40;;;4.60;99.90;;;;;;5045454;28;20109;-67
2021/01/02 01:17:49;;;;;;;15.50;7.57;;;4.60;99.90;;;;;;5050170;28;20045;-67
2021/01/02 01:20:17;;;;;;;17.17;8.75;;;4.60;99.90;;;;;;5046076;28;20041;-67
2021/01/02 01:23:14;;;;;;;18.88;8.48;;;4.60;99.90;;;;;;5049844;28;20049;-67
2021/01/02 01:26:05;;;;;;;18.88;8.35;;;4.50;99.90;;;;;;5045356;28;20416;-67
2021/01/02 01:28:36;;;;;;;18.15;9.18;;;4.50;99.90;;;;;;5043707;28;20546;-67
2021/01/02 01:31:05;;;;;;;18.70;8.40;;;4.50;99.90;;;;;;5050637;28;20045;-67
2021/01/02 01:33:31;;;;;;;19.33;9.07;;;4.50;99.90;;;;;;5046398;28;20048;-67
2021/01/02 01:36:00;;;;;;;15.43;8.15;;;4.50;99.90;;;;;;5050199;28;20408;-67
2021/01/02 01:38:28;;;;;;;15.00;7.30;;;4.50;99.90;;;;;;5048595;28;20100;-67
2021/01/02 01:41:12;;;;;;;16.30;7.97;;;4.50;99.90;;;;;;5050668;28;20045;-67
2021/01/02 01:44:19;;;;;;;13.73;7.22;;;4.60;99.90;;;;;;5046682;28;20535;-67
2021/01/02 01:46:51;;;;;;;15.65;7.13;;;4.50;99.90;;;;;;5047633;28;20481;-67
2021/01/02 01:49:30;;;;;;;15.90;7.88;;;4.50;99.90;;;;;;5046469;28;20527;-67
2021/01/02 01:51:57;;;;;;;16.55;7.97;;;4.50;99.90;;;;;;5050819;28;20037;-68
2021/01/02 01:54:51;;;;;;;16.65;8.23;;;4.60;99.90;;;;;;5047796;28;20067;-67
2021/01/02 01:57:26;;;;;;;14.45;6.85;;;4.60;99.90;;;;;;5048369;28;20045;-67
2021/01/02 01:59:58;;;;;;;17.77;7.78;;;4.60;99.90;;;;;;5050674;28;20049;-67
2021/01/02 02:02:46;;;;;;;15.57;7.55;;;4.60;99.90;;;;;;5054340;28;20053;-66
2021/01/02 02:05:21;;;;;;;15.98;7.88;;;4.60;99.90;;;;;;5053836;28;20052;-67
2021/01/02 02:08:08;;;;;;;15.85;6.88;;;4.60;99.90;;;;;;5052108;28;20461;-67
2021/01/02 02:10:44;;;;;;;16.20;7.97;;;4.60;99.90;;;;;;5054233;28;20135;-67
2021/01/02 02:13:18;;;;;;;15.07;7.32;;;4.60;99.90;;;;;;5051967;28;20041;-67
2021/01/02 02:15:49;;;;;;;19.23;8.35;;;4.50;99.90;;;;;;5053780;28;20053;-67
2021/01/02 02:18:24;;;;;;;18.35;8.38;;;4.50;99.90;;;;;;5051470;28;20041;-67
2021/01/02 02:20:53;;;;;;;18.23;9.10;;;4.50;99.90;;;;;;5054018;28;20060;-67
2021/01/02 02:23:56;;;;;;;16.33;7.95;;;4.50;99.90;;;;;;5051123;28;20386;-67
2021/01/02 02:26:34;;;;;;;19.48;9.65;;;4.40;99.90;;;;;;5049889;28;20464;-67
2021/01/02 02:29:12;;;;;;;16.40;7.97;;;4.40;99.90;;;;;;5050106;28;20093;-67
2021/01/02 02:31:44;;;;;;;17.50;8.37;;;4.40;99.90;;;;;;5053316;28;20552;-66
2021/01/02 02:34:12;;;;;;;15.68;8.07;;;4.40;99.90;;;;;;5047733;28;20041;-67
2021/01/02 02:36:39;;;;;;;19.02;8.45;;;4.40;99.90;;;;;;5053288;28;20049;-67
2021/01/02 02:39:11;;;;;;;18.70;9.23;;;4.40;99.90;;;;;;5051224;28;20041;-67
2021/01/02 02:41:41;;;;;;;16.92;8.88;;;4.40;99.90;;;;;;5053510;28;20090;-67
2021/01/02 02:44:10;;;;;;;17.42;8.57;;;4.40;99.90;;;;;;5047140;28;20044;-67
2021/01/02 02:46:43;;;;;;;15.52;8.10;;;4.40;99.90;;;;;;5053383;28;20049;-67
2021/01/02 02:49:12;;;;;;;18.73;9.00;;;4.40;99.90;;;;;;5050706;28;20040;-67
2021/01/02 02:51:52;;;;;;;15.30;7.45;;;4.40;99.90;;;;;;5053331;28;20128;-67
2021/01/02 02:54:21;;;;;;;15.88;7.18;;;4.40;99.90;;;;;;5047533;28;20052;-67
2021/01/02 02:56:48;;;;;;;14.07;7.28;;;4.40;99.90;;;;;;5051477;28;20047;-67
2021/01/02 02:59:14;;;;;;;17.65;8.30;;;4.40;99.90;;;;;;5050425;28;20140;-67
2021/01/02 03:01:45;;;;;;;14.93;7.68;;;4.40;99.90;;;;;;5053087;28;20119;-67
2021/01/02 03:04:11;;;;;;;15.27;8.20;;;4.40;99.90;;;;;;5048336;28;20132;-67
2021/01/02 03:06:38;;;;;;;16.60;9.63;;;4.40;99.90;;;;;;5052477;28;20132;-67
2021/01/02 03:09:05;;;;;;;16.42;8.85;;;4.40;99.90;;;;;;5050473;28;20058;-67
2021/01/02 03:11:32;;;;;;;19.58;9.45;;;4.40;99.90;;;;;;5053023;28;20386;-67
2021/01/02 03:13:58;;;;;;;16.15;7.97;;;4.40;99.90;;;;;;5049219;28;20071;-67
2021/01/02 03:16:24;;;;;;;19.85;9.43;;;4.40;99.90;;;;;;5052987;28;20457;-67
2021/01/02 03:18:51;;;;;;;14.10;7.90;;;4.40;99.90;;;;;;5047623;28;20052;-67
2021/01/02 03:21:18;;;;;;;18.30;9.23;;;4.40;99.90;;;;;;5052958;28;20053;-67
2021/01/02 03:23:49;;;;;;;16.90;9.55;;;4.40;99.90;;;;;;5051430;28;20059;-66
2021/01/02 03:26:17;;;;;;;19.33;9.73;;;4.40;99.90;;;;;;5052352;28;20049;-66
2021/01/02 03:28:53;;;;;;;20.08;10.43;;;4.40;99.90;;;;;;5049693;28;20049;-67
2021/01/02 03:31:19;;;;;;;14.98;8.52;;;4.30;99.90;;;;;;5047483;28;20404;-67
2021/01/02 03:33:46;;;;;;;19.17;9.50;;;4.30;99.90;;;;;;5050291;28;20407;-67
2021/01/02 03:36:13;;;;;;;17.98;9.38;;;4.30;99.90;;;;;;5046256;28;20073;-67
2021/01/02 03:38:41;;;;;;;18.48;8.70;;;4.30;99.90;;;;;;5049726;28;20086;-67
2021/01/02 03:41:07;;;;;;;16.73;9.07;;;4.30;99.90;;;;;;5052311;28;20045;-67
2021/01/02 03:43:35;;;;;;;15.73;9.07;;;4.30;99.90;;;;;;5050343;28;20055;-67
2021/01/02 03:46:02;;;;;;;16.20;8.38;;;4.30;99.90;;;;;;5052027;28;20397;-67
2021/01/02 03:48:28;;;;;;;18.15;8.68;;;4.30;99.90;;;;;;5049198;28;20049;-67
2021/01/02 03:50:55;;;;;;;18.83;9.40;;;4.30;99.90;;;;;;5051208;28;20140;-67
2021/01/02 03:53:21;;;;;;;17.38;9.20;;;4.30;99.90;;;;;;5050718;28;20049;-67
2021/01/02 03:55:47;;;;;;;19.50;8.82;;;4.20;99.90;;;;;;5051940;28;20048;-67
2021/01/02 03:58:13;;;;;;;17.80;9.23;;;4.20;99.90;;;;;;5048450;28;20052;-67
2021/01/02 04:00:41;;;;;;;18.20;9.50;;;4.20;99.90;;;;;;5051589;28;20086;-67
2021/01/02 04:03:08;;;;;;;18.58;9.75;;;4.20;99.90;;;;;;5048208;28;20052;-67
2021/01/02 04:05:35;;;;;;;18.77;9.13;;;4.20;99.90;;;;;;5048920;28;20057;-67
2021/01/02 04:08:02;;;;;;;18.83;9.02;;;4.20;99.90;;;;;;5049628;28;20455;-67
2021/01/02 04:10:29;;;;;;;16.83;8.48;;;4.20;99.90;;;;;;5051702;28;20053;-67
2021/01/02 04:12:55;;;;;;;18.02;8.93;;;4.20;99.90;;;;;;5050434;28;20357;-67
2021/01/02 04:15:21;;;;;;;17.02;9.05;;;4.20;99.90;;;;;;5051045;28;20163;-67
2021/01/02 04:17:47;;;;;;;16.27;9.20;;;4.20;99.90;;;;;;5049348;28;20049;-66
2021/01/02 04:20:14;;;;;;;15.70;8.18;;;4.20;99.90;;;;;;5050532;28;20037;-66
2021/01/02 04:22:40;;;;;;;19.23;9.32;;;4.20;99.90;;;;;;5050365;28;20143;-66
2021/01/02 04:25:07;;;;;;;14.55;7.93;;;4.20;99.90;;;;;;5050357;28;20519;-68
2021/01/02 04:27:34;;;;;;;17.58;8.55;;;4.20;99.90;;;;;;5050161;28;20087;-67
2021/01/02 04:30:01;;;;;;;21.88;8.63;;;4.20;99.90;;;;;;5049342;28;20049;-66
2021/01/02 04:32:28;;;;;;;16.23;7.63;;;4.20;99.90;;;;;;5051721;28;20049;-66
2021/01/02 04:34:54;;;;;;;14.57;7.55;;;4.10;99.90;;;;;;5047666;28;20045;-66
2021/01/02 04:37:30;;;;;;;19.30;9.15;;;4.10;99.90;;;;;;5050125;28;20068;-66
2021/01/02 04:39:57;;;;;;;18.88;8.52;;;4.10;99.90;;;;;;5049112;28;20071;-65
2021/01/02 04:42:24;;;;;;;15.95;8.52;;;4.10;99.90;;;;;;5051646;28;20044;-66
2021/01/02 04:44:52;;;;;;;18.48;9.45;;;4.10;99.90;;;;;;5046760;28;20053;-66
2021/01/02 04:47:22;;;;;;;15.98;8.63;;;4.10;99.90;;;;;;5049739;28;20045;-66
2021/01/02 04:49:48;;;;;;;19.38;9.38;;;4.10;99.90;;;;;;5046919;28;20053;-66
2021/01/02 04:52:19;;;;;;;15.90;8.40;;;4.00;99.90;;;;;;5048895;28;20045;-66
2021/01/02 04:54:49;;;;;;;17.60;8.93;;;4.10;99.90;;;;;;5045617;28;20147;-66
2021/01/02 04:57:17;;;;;;;14.82;8.27;;;4.10;99.90;;;;;;5049985;28;20044;-66
2021/01/02 04:59:51;;;;;;;13.68;8.52;;;4.10;99.90;;;;;;5046255;28;20120;-66
2021/01/02 05:02:21;;;;;;;15.30;7.95;;;4.10;99.90;;;;;;5048970;28;20041;-65
2021/01/02 05:04:48;;;;;;;16.95;8.05;;;4.10;99.90;;;;;;5048544;28;20411;-66
2021/01/02 05:07:29;;;;;;;15.40;8.00;;;4.10;99.90;;;;;;5048805;28;20056;-66
2021/01/02 05:09:57;;;;;;;18.38;8.50;;;4.10;99.90;;;;;;5045353;28;20071;-66
2021/01/02 05:12:25;;;;;;;;;;;4.10;99.90;;;;;;5049737;28;20143;-66
2021/01/02 05:15:09;;;;;;;14.98;7.50;;;4.10;99.90;;;;;;5047587;28;19924;-66
2021/01/02 05:17:37;;;;;;;13.85;7.85;;;4.10;99.90;;;;;;5048047;28;20442;-66
2021/01/02 05:20:15;;;;;;;14.02;7.93;;;4.10;99.90;;;;;;5049504;28;20404;-66
2021/01/02 05:22:42;;;;;;;14.63;7.65;;;4.00;99.90;;;;;;5048895;28;20040;-66
2021/01/02 05:25:12;;;;;;;14.70;7.68;;;4.00;99.90;;;;;;5050314;28;20136;-66
2021/01/02 05:27:42;;;;;;;16.33;7.57;;;4.00;99.90;;;;;;5048672;28;20180;-66
2021/01/02 05:30:15;;;;;;;15.25;7.78;;;4.00;99.90;;;;;;5048432;28;20053;-66
2021/01/02 05:32:55;;;;;;;14.95;7.45;;;4.00;99.90;;;;;;5048829;28;20045;-66
2021/01/02 05:35:22;;;;;;;15.02;7.95;;;4.00;99.90;;;;;;5049979;28;20049;-66
2021/01/02 05:37:49;;;;;;;14.35;7.90;;;4.00;99.90;;;;;;5051956;28;20080;-66
2021/01/02 05:40:32;;;;;;;14.05;7.22;;;4.00;99.90;;;;;;5051211;28;20077;-66
2021/01/02 05:43:00;;;;;;;12.23;7.07;;;4.00;99.90;;;;;;5052797;28;20076;-66
2021/01/02 05:45:28;;;;;;;15.00;8.13;;;4.00;99.90;;;;;;5051206;28;20049;-66
2021/01/02 05:48:10;;;;;;;15.90;7.72;;;4.00;99.90;;;;;;5051383;28;20558;-66
2021/01/02 05:50:49;;;;;;;13.85;7.65;;;4.00;99.90;;;;;;5054665;28;20083;-66
2021/01/02 05:53:27;;;;;;;13.98;7.63;;;4.00;99.90;;;;;;5052135;28;20041;-66
2021/01/02 05:55:58;;;;;;;17.20;7.60;;;4.00;99.90;;;;;;5048492;28;20152;-66
2021/01/02 05:58:25;;;;;;;13.40;8.05;;;4.00;99.90;;;;;;5045909;28;20057;-66
2021/01/02 06:01:03;;;;;;;14.43;7.88;;;4.00;99.90;;;;;;5053842;28;20131;-66
2021/01/02 06:03:29;;;;;;;15.57;7.65;;;4.00;99.90;;;;;;5043970;28;20076;-66
2021/01/02 06:06:03;;;;;;;13.05;7.55;;;4.10;99.90;;;;;;5054022;28;20056;-66
2021/01/02 06:08:34;;;;;;;14.07;7.07;;;4.10;99.90;;;;;;5047880;28;20373;-66
2021/01/02 06:11:05;;;;;;;14.93;7.10;;;4.10;99.90;;;;;;5054385;28;20080;-66
2021/01/02 06:13:34;;;;;;;14.98;8.93;;;4.10;99.90;;;;;;5049918;28;20049;-66
2021/01/02 06:16:04;;;;;;;16.13;7.82;;;4.10;99.90;;;;;;5054691;28;20048;-66
2021/01/02 06:18:35;;;;;;;15.55;8.02;;;4.10;99.90;;;;;;5048788;28;20080;-66
2021/01/02 06:21:04;;;;;;;14.13;7.72;;;4.10;99.90;;;;;;5053054;28;20045;-67
2021/01/02 06:23:30;;;;;;;17.00;8.43;;;4.10;99.90;;;;;;5052362;28;20045;-66
2021/01/02 06:25:57;;;;;;;14.65;8.13;;;4.10;99.90;;;;;;5054357;28;20063;-66
2021/01/02 06:28:26;;;;;;;16.53;8.17;;;4.10;99.90;;;;;;5048879;28;20492;-66
2021/01/02 06:31:00;;;;;;;16.15;8.63;;;4.10;99.90;;;;;;5051811;28;20320;-66
2021/01/02 06:33:27;;;;;;;14.95;7.55;;;4.10;99.90;;;;;;5048253;28;20045;-66
2021/01/02 06:35:54;;;;;;;18.77;9.02;;;4.10;99.90;;;;;;5052734;28;20124;-66
2021/01/02 06:38:22;;;;;;;15.23;8.70;;;4.00;99.90;;;;;;5048124;28;20124;-66
2021/01/02 06:40:50;;;;;;;17.60;9.73;;;4.00;99.90;;;;;;5052711;28;20128;-66
2021/01/02 06:43:19;;;;;;;22.05;9.25;;;4.10;99.90;;;;;;5049625;28;20490;-66
2021/01/02 06:45:56;;;;;;;16.92;9.02;;;4.10;99.90;;;;;;5052321;28;20447;-66
2021/01/02 06:48:33;;;;;;;15.95;8.30;;;4.10;99.90;;;;;;5049600;28;20132;-66
2021/01/02 06:51:26;;;;;;;15.57;8.65;;;4.10;99.90;;;;;;5052454;28;20136;-66
2021/01/02 06:53:52;;;;;;;16.50;8.85;;;4.10;99.90;;;;;;5042945;28;20045;-66
2021/01/02 06:56:28;;;;;;;17.98;9.18;;;4.00;99.90;;;;;;5052543;28;20204;-66
2021/01/02 06:58:54;;;;;;;18.15;8.82;;;4.00;99.90;;;;;;5045327;28;20045;-66
2021/01/02 07:01:20;;;;;;;15.57;7.82;;;4.00;99.90;;;;;;5052211;28;20037;-66
2021/01/02 07:03:49;;;;;;;21.17;9.95;;;4.00;99.90;;;;;;5044790;28;20072;-66
2021/01/02 07:06:22;;;;;;;19.50;9.13;;;4.00;99.90;;;;;;5051545;28;20132;-66
2021/01/02 07:08:58;;;;;;;20.58;9.52;;;4.00;99.90;;;;;;5048905;28;20041;-66
2021/01/02 07:11:40;;;;;;;19.23;9.93;;;4.00;99.90;;;;;;5051848;28;20052;-66
2021/01/02 07:14:12;;;;;;;18.88;8.73;;;4.00;99.90;;;;;;5044927;28;20045;-66
2021/01/02 07:16:56;;;;;;;22.15;10.38;;;4.00;99.90;;;;;;5051657;28;20036;-66
2021/01/02 07:19:26;;;;;;;19.15;8.98;;;4.00;99.90;;;;;;5044891;28;20156;-66
2021/01/02 07:21:55;;;;;;;;;;;4.00;99.90;;;;;;5051805;28;20051;-66
2021/01/02 07:24:27;;;;;;;20.27;9.32;;;4.00;99.90;;;;;;5050525;28;19967;-66
2021/01/02 07:27:15;;;;;;;18.83;9.38;;;3.90;99.90;;;;;;5031348;28;543700;-66
2021/01/02 07:29:45;;;;;;;;;;;3.90;99.90;;;;;;5050208;28;20041;-66
2021/01/02 07:32:13;;;;;;;16.33;9.35;;;3.90;99.90;;;;;;5052257;28;20011;-66
2021/01/02 07:34:42;;;;;;;21.75;10.50;;;3.90;99.90;;;;;;5050515;28;20120;-66
2021/01/02 07:37:10;;;;;;;24.35;9.73;;;3.90;99.90;;;;;;5051683;28;20063;-66
2021/01/02 07:39:37;;;;;;;23.67;10.43;;;3.90;99.90;;;;;;5051166;28;20037;-66
2021/01/02 07:42:11;;;;;;;26.20;10.77;;;3.90;99.90;;;;;;5052710;28;20461;-66
2021/01/02 07:44:39;;;;;;;23.40;10.55;;;3.90;99.90;;;;;;5047837;28;20045;-66
2021/01/02 07:47:07;;;;;;;23.30;11.40;;;3.90;99.90;;;;;;5051409;28;20135;-66
2021/01/02 07:49:33;;;;;;;25.60;10.33;;;3.90;99.90;;;;;;5042944;28;20090;-65
2021/01/02 07:52:00;;;;;;;26.30;11.20;;;3.90;99.90;;;;;;5049399;28;20045;-66
2021/01/02 07:54:30;;;;;;;26.45;11.27;;;3.90;99.90;;;;;;5035562;28;20090;-66
2021/01/02 07:56:57;;;;;;;22.95;11.13;;;3.80;99.90;;;;;;5049730;28;20059;-66
2021/01/02 07:59:30;;;;;;;26.63;11.35;;;3.80;99.90;;;;;;5047293;28;20458;-66
2021/01/02 08:02:04;;;;;;;23.70;10.65;;;3.80;99.90;;;;;;5050856;28;20055;-66
2021/01/02 08:04:31;;;;;;;22.15;11.00;;;3.80;99.90;;;;;;5050328;28;20051;-67
2021/01/02 08:07:05;;;;;;;24.33;10.80;;;3.80;99.90;;;;;;5050040;28;20049;-66
2021/01/02 08:09:34;;;;;;;28.25;10.88;;;3.80;99.90;;;;;;5035940;28;20140;-66
2021/01/02 08:12:00;;;;;;;19.60;8.38;;;3.80;99.90;;;;;;5048960;28;20123;-66
2021/01/02 08:14:29;;;;;;;21.63;10.23;;;3.90;99.90;;;;;;5043842;28;20072;-66
2021/01/02 08:17:15;;;;;;;19.70;10.30;;;3.90;99.90;;;;;;5051643;28;20127;-66
2021/01/02 08:19:47;;;;;;;26.33;10.10;;;3.90;99.90;;;;;;5047519;28;20052;-66
2021/01/02 08:22:28;;;;;;;23.75;10.18;;;3.90;99.90;;;;;;5050876;28;20048;-66
2021/01/02 08:24:57;;;;;;;22.95;9.77;;;3.90;99.90;;;;;;5048831;28;20127;-66
2021/01/02 08:27:26;;;;;;;21.88;9.48;;;4.00;99.90;;;;;;5050248;28;20044;-66
2021/01/02 08:29:54;;;;;;;22.02;10.15;;;4.00;99.90;;;;;;5049178;28;20059;-66
2021/01/02 08:32:24;;;;;;;26.63;10.48;;;4.00;99.90;;;;;;5051588;28;20037;-66
2021/01/02 08:34:50;;;;;;;24.63;10.25;;;4.00;99.90;;;;;;5048980;28;20052;-66
2021/01/02 08:37:17;;;;;;;23.42;10.23;;;4.00;99.90;;;;;;5050239;28;20136;-66
2021/01/02 08:39:44;;;;;;;25.20;10.73;;;4.00;99.90;;;;;;5044223;28;20051;-66
2021/01/02 08:42:12;;;;;;;24.48;9.60;;;4.00;99.90;;;;;;5051313;28;20049;-66
2021/01/02 08:44:46;;;;;;;20.50;10.65;;;4.00;99.90;;;;;;5048842;28;20122;-66
2021/01/02 08:47:25;;;;;;;19.92;8.70;;;4.10;99.90;;;;;;5051180;28;20045;-66
2021/01/02 08:49:51;;;;;;;24.30;10.27;;;4.10;99.90;;;;;;5048037;28;20064;-66
2021/01/02 08:52:26;;;;;;;25.13;10.93;;;4.10;99.90;;;;;;5050615;28;20047;-66
2021/01/02 08:55:07;;;;;;;18.45;9.05;;;4.10;99.90;;;;;;5048950;28;20053;-66
2021/01/02 08:57:34;;;;;;;27.52;11.23;;;4.10;99.90;;;;;;5047453;28;20041;-66
2021/01/02 09:00:07;;;;;;;26.48;10.93;;;4.10;99.90;;;;;;5048942;28;20077;-66
2021/01/02 09:02:34;;;;;;;22.02;10.90;;;4.10;99.90;;;;;;5048897;28;20057;-66
2021/01/02 09:05:12;;;;;;;25.23;11.50;;;4.10;99.90;;;;;;5049449;28;20049;-66
2021/01/02 09:07:39;;;;;;;27.95;11.35;;;4.10;99.90;;;;;;5044140;28;20045;-66
2021/01/02 09:10:17;;;;;;;27.05;12.85;;;4.10;99.90;;;;;;5046469;28;20114;-66
2021/01/02 09:12:58;;;;;;;25.88;9.50;;;4.10;99.90;;;;;;5044200;28;20349;-66
2021/01/02 09:15:55;;;;;;;28.58;11.23;;;4.10;99.90;;;;;;5048258;28;20053;-66
2021/01/02 09:18:27;;;;;;;26.70;10.73;;;4.10;99.90;;;;;;5047935;28;20373;-66
2021/01/02 09:21:09;;;;;;;24.50;10.82;;;4.10;99.90;;;;;;5050922;28;20110;-66
2021/01/02 09:23:54;;;;;;;27.25;11.20;;;4.20;99.90;;;;;;5043892;28;20056;-66
2021/01/02 09:26:21;;;;;;;28.83;11.02;;;4.20;99.90;;;;;;5050095;28;20044;-66
2021/01/02 09:28:48;;;;;;;25.02;10.38;;;4.20;99.90;;;;;;5047246;28;20044;-66
2021/01/02 09:31:15;;;;;;;26.58;12.45;;;4.20;99.90;;;;;;5050412;28;20231;-66
2021/01/02 09:33:41;;;;;;;22.75;11.32;;;4.30;99.90;;;;;;5045053;28;20045;-66
2021/01/02 09:36:11;;;;;;;26.15;10.52;;;4.30;99.90;;;;;;5049980;28;20037;-66
2021/01/02 09:38:37;;;;;;;23.88;11.45;;;4.30;99.90;;;;;;5047046;28;20044;-66
2021/01/02 09:41:03;;;;;;;27.05;10.98;;;4.30;99.90;;;;;;5049411;28;20045;-66
2021/01/02 09:43:29;;;;;;;27.40;12.63;;;4.30;99.90;;;;;;5045070;28;20423;-66
2021/01/02 09:45:56;;;;;;;27.88;11.77;;;4.30;99.90;;;;;;5049925;28;20057;-66
2021/01/02 09:48:22;;;;;;;35.33;15.13;;;4.30;99.90;;;;;;5047369;28;20049;-66
2021/01/02 09:50:50;;;;;;;33.08;14.20;;;4.30;99.90;;;;;;5048797;28;20051;-66
2021/01/02 09:53:17;;;;;;;32.13;13.90;;;4.20;99.90;;;;;;5048604;28;20066;-66
2021/01/02 09:55:43;;;;;;;29.17;13.63;;;4.20;99.90;;;;;;5049975;28;20279;-67
2021/01/02 09:58:11;;;;;;;33.60;14.68;;;4.20;99.90;;;;;;5046935;28;20090;-66
2021/01/02 10:00:38;;;;;;;27.55;12.43;;;4.20;99.90;;;;;;5043888;28;20041;-66
2021/01/02 10:03:07;;;;;;;32.92;14.20;;;4.20;99.90;;;;;;5038504;28;20405;-66
2021/01/02 10:05:42;;;;;;;27.95;12.20;;;4.10;99.90;;;;;;5037771;28;20056;-66
2021/01/02 10:08:08;;;;;;;33.60;14.75;;;4.10;99.90;;;;;;5038069;28;20124;-66
2021/01/02 10:10:35;;;;;;;32.88;12.68;;;4.10;99.90;;;;;;5038860;28;20520;-66
2021/01/02 10:13:02;;;;;;;29.80;12.02;;;4.10;99.90;;;;;;5037461;28;20053;-66
2021/01/02 10:15:29;;;;;;;34.28;12.82;;;4.10;99.90;;;;;;5039511;28;20124;-66
2021/01/02 10:17:57;;;;;;;26.52;12.45;;;4.10;99.90;;;;;;5037639;28;20049;-65
2021/01/02 10:20:24;;;;;;;25.70;12.50;;;4.10;99.90;;;;;;5042386;28;20055;-66
2021/01/02 10:22:51;;;;;;;26.50;11.52;;;4.10;99.90;;;;;;5041879;28;20084;-66
2021/01/02 10:25:17;;;;;;;24.25;11.18;;;4.20;99.90;;;;;;5043101;28;20053;-66
2021/01/02 10:27:43;;;;;;;25.13;12.00;;;4.20;99.90;;;;;;5040523;28;20538;-66
2021/01/02 10:30:12;;;;;;;26.80;11.38;;;4.20;99.90;;;;;;5042137;28;20056;-66
2021/01/02 10:32:39;;;;;;;26.85;11.32;;;4.20;99.90;;;;;;5041777;28;20040;-66
2021/01/02 10:35:09;;;;;;;26.63;11.95;;;4.20;99.90;;;;;;5042942;28;21510;-66
2021/01/02 10:37:35;;;;;;;26.90;10.50;;;4.20;99.90;;;;;;5040300;28;20450;-66
2021/01/02 10:40:04;;;;;;;30.25;10.65;;;4.20;99.90;;;;;;5041905;28;20510;-66
2021/01/02 10:42:32;;;;;;;27.15;12.27;;;4.20;99.90;;;;;;5042329;28;20123;-66
2021/01/02 10:45:01;;;;;;;28.07;12.23;;;4.30;99.90;;;;;;5041186;28;20132;-66
2021/01/02 10:47:29;;;;;;;29.55;13.25;;;4.30;99.90;;;;;;5041499;28;20479;-66
2021/01/02 10:49:57;;;;;;;33.10;13.15;;;4.30;99.90;;;;;;5040676;28;20045;-66
2021/01/02 10:52:25;;;;;;;29.30;12.15;;;4.30;99.90;;;;;;5042708;28;20041;-66
2021/01/02 10:54:52;;;;;;;30.08;12.30;;;4.30;99.90;;;;;;5041878;28;20125;-66
2021/01/02 10:57:24;;;;;;;25.42;11.23;;;4.30;99.90;;;;;;5042769;28;20044;-67
2021/01/02 10:59:52;;;;;;;24.40;10.13;;;4.30;99.90;;;;;;5041593;28;20045;-66
2021/01/02 11:02:19;;;;;;;31.93;12.23;;;4.30;99.90;;;;;;5041425;28;20368;-66
2021/01/02 11:04:45;;;;;;;24.35;10.38;;;4.30;99.90;;;;;;5039136;28;20040;-66
2021/01/02 11:07:13;;;;;;;27.20;11.05;;;4.30;99.90;;;;;;5042150;28;20133;-66
2021/01/02 11:09:39;;;;;;;24.20;10.77;;;4.40;99.90;;;;;;5039855;28;20469;-66
2021/01/02 11:12:06;;;;;;;24.90;10.20;;;4.40;99.90;;;;;;5043158;28;20153;-66
2021/01/02 11:14:32;;;;;;;24.35;10.48;;;4.40;99.90;;;;;;5040936;28;20059;-66
2021/01/02 11:16:58;;;;;;;22.80;9.00;;;4.40;99.90;;;;;;5042732;28;20211;-66
2021/01/02 11:19:28;;;;;;;23.27;10.20;;;4.40;99.90;;;;;;5041363;28;20099;-66
2021/01/02 11:22:00;;;;;;;26.80;10.90;;;4.50;99.90;;;;;;5042877;28;20052;-66
2021/01/02 11:24:29;;;;;;;23.98;10.90;;;4.50;99.90;;;;;;5040858;28;20088;-66
2021/01/02 11:27:00;;;;;;;36.45;14.10;;;4.50;99.90;;;;;;5041350;28;20435;-66
2021/01/02 11:29:30;;;;;;;31.70;13.50;;;4.40;99.90;;;;;;5039753;28;20048;-66
2021/01/02 11:31:57;;;;;;;32.45;13.75;;;4.30;99.90;;;;;;5040732;28;20059;-66
2021/01/02 11:34:25;;;;;;;29.73;12.05;;;4.30;99.90;;;;;;5040835;28;20044;-66
2021/01/02 11:36:58;;;;;;;29.83;12.90;;;4.20;99.90;;;;;;5040021;28;20053;-66
2021/01/02 11:39:26;;;;;;;26.63;11.55;;;4.20;99.90;;;;;;5038356;28;20047;-66
2021/01/02 11:41:54;;;;;;;29.80;12.73;;;4.20;99.90;;;;;;5039625;28;20057;-66
2021/01/02 11:44:23;;;;;;;32.15;12.82;;;4.20;99.90;;;;;;5039045;28;20053;-66
2021/01/02 11:46:56;;;;;;;30.42;11.13;;;4.20;99.90;;;;;;5040439;28;20044;-66
2021/01/02 11:49:28;;;;;;;23.42;10.45;;;4.20;99.90;;;;;;5038978;28;20063;-66
2021/01/02 11:51:57;;;;;;;25.25;11.52;;;4.20;99.90;;;;;;5038340;28;20087;-66
2021/01/02 11:54:24;;;;;;;;;;;4.20;99.90;;;;;;5041399;28;20435;-66
2021/01/02 11:56:50;;;;;;;22.17;9.07;;;4.30;99.90;;;;;;5041582;28;19930;-66
2021/01/02 11:59:18;;;;;;;23.63;10.02;;;4.30;99.90;;;;;;5039508;28;20148;-66
2021/01/02 12:01:53;;;;;;;24.88;10.80;;;4.40;99.90;;;;;;5042402;28;20041;-66
2021/01/02 12:04:22;;;;;;;28.42;11.00;;;4.40;99.90;;;;;;5039331;28;20053;-67
2021/01/02 12:06:50;;;;;;;27.48;11.35;;;4.40;99.90;;;;;;5041048;28;20097;-66
2021/01/02 12:09:19;;;;;;;24.92;11.25;;;4.40;99.90;;;;;;5039141;28;20048;-66
2021/01/02 12:11:47;;;;;;;27.05;11.52;;;4.40;99.90;;;;;;5041827;28;20148;-66
2021/01/02 12:14:17;;;;;;;28.50;12.00;;;4.40;99.90;;;;;;5038444;28;20144;-67
2021/01/02 12:16:46;;;;;;;24.67;10.23;;;4.30;99.90;;;;;;5041366;28;20053;-67
2021/01/02 12:19:16;;;;;;;28.42;11.75;;;4.40;99.90;;;;;;5038033;28;20068;-67
2021/01/02 12:21:43;;;;;;;28.25;11.10;;;4.40;99.90;;;;;;5042313;28;20080;-67
2021/01/02 12:24:10;;;;;;;24.08;11.23;;;4.40;99.90;;;;;;5041267;28;20055;-66
2021/01/02 12:26:44;;;;;;;28.55;11.10;;;4.40;99.90;;;;;;5041519;28;20131;-67
2021/01/02 12:29:11;;;;;;;26.83;11.38;;;4.40;99.90;;;;;;5037243;28;20049;-67
2021/01/02 12:31:45;;;;;;;24.75;11.55;;;4.40;99.90;;;;;;5041620;28;20056;-67
2021/01/02 12:34:13;;;;;;;25.60;10.88;;;4.40;99.90;;;;;;5039012;28;20132;-66
2021/01/02 12:36:42;;;;;;;20.83;9.93;;;4.50;99.90;;;;;;5040176;28;20159;-67
2021/01/02 12:39:14;;;;;;;19.95;9.43;;;4.50;99.90;;;;;;5036062;28;20045;-67
2021/01/02 12:41:40;;;;;;;21.77;9.75;;;4.50;99.90;;;;;;5037700;28;20139;-67
2021/01/02 12:44:09;;;;;;;23.98;9.45;;;4.50;99.90;;;;;;5036611;28;20052;-67
2021/01/02 12:46:38;;;;;;;22.25;11.43;;;4.50;99.90;;;;;;5040272;28;20053;-67
2021/01/02 12:49:05;;;;;;;22.55;11.63;;;4.50;99.90;;;;;;5036427;28;20058;-67
2021/01/02 12:51:32;;;;;;;28.13;11.45;;;4.50;99.90;;;;;;5038304;28;20059;-67
2021/01/02 12:53:58;;;;;;;24.92;11.38;;;4.50;99.90;;;;;;5037642;28;20460;-67
2021/01/02 12:56:25;;;;;;;29.70;13.50;;;4.50;99.90;;;;;;5038920;28;20072;-67
2021/01/02 12:58:51;;;;;;;26.85;10.95;;;4.60;99.90;;;;;;5037039;28;20057;-67
2021/01/02 13:01:18;;;;;;;32.17;13.57;;;4.60;99.90;;;;;;5046567;28;20051;-67
2021/01/02 13:03:44;;;;;;;28.92;11.60;;;4.60;99.90;;;;;;5047591;28;20045;-67
2021/01/02 13:06:14;;;;;;;29.25;13.65;;;4.60;99.90;;;;;;5051055;28;20380;-67